createdAt,value
2018-04-17T00:00:01.069Z,51.90
2018-04-17T00:00:32.845Z,52.00
2018-04-17T00:01:05.394Z,52.10
2018-04-17T00:01:37.170Z,52.00
2018-04-17T00:02:09.722Z,52.20
2018-04-17T00:02:42.277Z,52.10
2018-04-17T00:03:14.848Z,52.20
2018-04-17T00:03:47.377Z,52.10
2018-04-17T00:04:19.169Z,52.10
2018-04-17T00:04:51.929Z,52.00
2018-04-17T00:05:24.485Z,52.00
2018-04-17T00:05:57.030Z,52.00
2018-04-17T00:06:28.827Z,52.00
2018-04-17T00:07:01.364Z,52.20
2018-04-17T00:07:33.914Z,52.10
2018-04-17T00:08:05.696Z,52.10
2018-04-17T00:08:37.476Z,51.50
2018-04-17T00:09:09.248Z,52.10
2018-04-17T00:09:41.030Z,52.10
2018-04-17T00:10:12.806Z,52.10
2018-04-17T00:10:44.601Z,52.10
2018-04-17T00:11:17.150Z,52.10
2018-04-17T00:11:49.709Z,52.50
2018-04-17T00:12:21.476Z,52.00
2018-04-17T00:12:54.027Z,52.00
2018-04-17T00:13:26.576Z,52.00
2018-04-17T00:13:58.421Z,51.90
2018-04-17T00:14:30.189Z,51.90
2018-04-17T00:15:02.749Z,52.00
2018-04-17T00:15:34.509Z,51.90
2018-04-17T00:16:06.282Z,51.90
2018-04-17T00:16:38.118Z,51.90
2018-04-17T00:17:09.901Z,52.00
2018-04-17T00:17:41.670Z,52.50
2018-04-17T00:18:14.229Z,51.90
2018-04-17T00:18:46.774Z,51.90
2018-04-17T00:19:18.553Z,51.90
2018-04-17T00:19:51.106Z,51.90
2018-04-17T00:20:23.676Z,51.90
2018-04-17T00:20:56.232Z,52.00
2018-04-17T00:21:27.988Z,52.00
2018-04-17T00:21:59.846Z,52.00
2018-04-17T00:22:31.622Z,52.00
2018-04-17T00:23:03.393Z,52.00
2018-04-17T00:23:35.183Z,51.90
2018-04-17T00:24:07.723Z,52.00
2018-04-17T00:24:40.315Z,52.00
2018-04-17T00:25:12.274Z,51.90
2018-04-17T00:25:44.075Z,52.00
2018-04-17T00:26:16.036Z,52.00
2018-04-17T00:26:47.842Z,51.90
2018-04-17T00:27:19.655Z,51.90
2018-04-17T00:27:51.444Z,51.80
2018-04-17T00:28:23.206Z,51.90
2018-04-17T00:28:55.025Z,51.90
2018-04-17T00:29:26.798Z,51.90
2018-04-17T00:29:58.582Z,51.90
2018-04-17T00:30:30.393Z,52.00
2018-04-17T00:31:02.159Z,51.90
2018-04-17T00:31:35.007Z,52.00
2018-04-17T00:32:07.561Z,52.00
2018-04-17T00:32:39.334Z,52.00
2018-04-17T00:33:11.870Z,51.80
2018-04-17T00:33:43.646Z,51.80
2018-04-17T00:34:15.426Z,51.90
2018-04-17T00:34:47.201Z,51.90
2018-04-17T00:35:18.972Z,52.00
2018-04-17T00:35:51.528Z,52.00
2018-04-17T00:36:24.079Z,52.00
2018-04-17T00:36:57.367Z,52.00
2018-04-17T00:37:29.144Z,52.00
2018-04-17T00:38:00.952Z,52.00
2018-04-17T00:38:32.923Z,51.90
2018-04-17T00:39:05.482Z,52.00
2018-04-17T00:39:38.022Z,52.00
2018-04-17T00:40:09.818Z,52.00
2018-04-17T00:40:41.592Z,52.20
2018-04-17T00:41:13.369Z,51.90
2018-04-17T00:41:45.945Z,51.90
2018-04-17T00:42:18.517Z,51.90
2018-04-17T00:42:51.061Z,51.80
2018-04-17T00:43:23.649Z,52.40
2018-04-17T00:43:56.190Z,51.80
2018-04-17T00:44:27.988Z,51.80
2018-04-17T00:44:59.765Z,51.90
2018-04-17T00:45:31.546Z,51.70
2018-04-17T00:46:03.356Z,51.70
2018-04-17T00:46:35.137Z,51.70
2018-04-17T00:47:06.917Z,51.70
2018-04-17T00:47:38.758Z,51.70
2018-04-17T00:48:10.528Z,51.70
2018-04-17T00:48:42.299Z,51.70
2018-04-17T00:49:14.882Z,51.70
2018-04-17T00:49:46.659Z,51.60
2018-04-17T00:50:18.481Z,51.70
2018-04-17T00:50:50.258Z,51.80
2018-04-17T00:51:22.082Z,51.70
2018-04-17T00:51:53.858Z,51.70
2018-04-17T00:52:25.874Z,51.80
2018-04-17T00:52:57.645Z,51.70
2018-04-17T00:53:29.438Z,51.70
2018-04-17T00:54:02.004Z,51.80
2018-04-17T00:54:34.570Z,52.40
2018-04-17T00:55:07.137Z,51.80
2018-04-17T00:55:38.946Z,51.80
2018-04-17T00:56:10.725Z,51.80
2018-04-17T00:56:43.254Z,51.90
2018-04-17T00:57:15.036Z,51.90
2018-04-17T00:57:47.590Z,51.80
2018-04-17T00:58:20.147Z,51.90
2018-04-17T00:58:51.911Z,51.90
2018-04-17T00:59:23.712Z,51.90
2018-04-17T00:59:55.525Z,51.90
2018-04-17T01:00:27.288Z,51.90
2018-04-17T01:00:59.299Z,51.90
2018-04-17T01:01:31.873Z,51.90
2018-04-17T01:02:04.426Z,51.90
2018-04-17T01:02:36.981Z,51.80
2018-04-17T01:03:09.521Z,51.80
2018-04-17T01:03:41.344Z,51.80
2018-04-17T01:04:13.156Z,51.90
2018-04-17T01:04:45.772Z,51.80
2018-04-17T01:05:17.669Z,51.70
2018-04-17T01:05:49.594Z,51.80
2018-04-17T01:06:22.141Z,51.90
2018-04-17T01:06:54.689Z,51.90
2018-04-17T01:07:26.498Z,51.90
2018-04-17T01:07:58.278Z,51.90
2018-04-17T01:08:30.066Z,51.80
2018-04-17T01:09:01.925Z,51.80
2018-04-17T01:09:33.745Z,51.90
2018-04-17T01:10:06.332Z,51.80
2018-04-17T01:10:38.873Z,51.80
2018-04-17T01:11:11.426Z,51.70
2018-04-17T01:11:43.199Z,51.70
2018-04-17T01:12:14.978Z,52.30
2018-04-17T01:12:46.782Z,51.70
2018-04-17T01:13:19.331Z,51.80
2018-04-17T01:13:52.609Z,51.90
2018-04-17T01:14:24.426Z,51.80
2018-04-17T01:14:56.206Z,51.50
2018-04-17T01:15:28.753Z,52.10
2018-04-17T01:16:00.543Z,51.80
2018-04-17T01:16:33.085Z,51.90
2018-04-17T01:17:05.633Z,51.90
2018-04-17T01:17:37.430Z,51.90
2018-04-17T01:18:09.236Z,52.00
2018-04-17T01:18:41.053Z,52.00
2018-04-17T01:19:12.837Z,51.90
2018-04-17T01:19:45.424Z,51.90
2018-04-17T01:20:17.212Z,51.90
2018-04-17T01:20:48.986Z,52.00
2018-04-17T01:21:20.753Z,51.90
2018-04-17T01:21:52.545Z,51.90
2018-04-17T01:22:24.323Z,51.90
2018-04-17T01:22:56.865Z,51.90
2018-04-17T01:23:28.631Z,51.90
2018-04-17T01:24:01.175Z,52.00
2018-04-17T01:24:33.717Z,52.30
2018-04-17T01:25:05.532Z,51.80
2018-04-17T01:25:37.337Z,51.90
2018-04-17T01:26:09.120Z,51.80
2018-04-17T01:26:40.909Z,51.80
2018-04-17T01:27:12.683Z,51.80
2018-04-17T01:27:45.233Z,51.90
2018-04-17T01:28:17.004Z,51.90
2018-04-17T01:28:48.782Z,51.90
2018-04-17T01:29:21.530Z,52.00
2018-04-17T01:29:53.313Z,52.00
2018-04-17T01:30:25.091Z,52.00
2018-04-17T01:30:57.644Z,52.00
2018-04-17T01:31:29.437Z,51.90
2018-04-17T01:32:01.202Z,52.00
2018-04-17T01:32:32.985Z,52.10
2018-04-17T01:33:05.264Z,52.00
2018-04-17T01:33:37.796Z,52.00
2018-04-17T01:34:09.574Z,52.00
2018-04-17T01:34:41.361Z,52.30
2018-04-17T01:35:13.139Z,52.00
2018-04-17T01:35:45.695Z,52.00
2018-04-17T01:36:17.459Z,51.90
2018-04-17T01:36:49.997Z,51.80
2018-04-17T01:37:22.562Z,51.80
2018-04-17T01:37:54.333Z,51.90
2018-04-17T01:38:26.878Z,51.70
2018-04-17T01:38:58.649Z,51.70
2018-04-17T01:39:30.424Z,51.70
2018-04-17T01:40:02.404Z,51.70
2018-04-17T01:40:34.179Z,51.80
2018-04-17T01:41:06.739Z,51.70
2018-04-17T01:41:39.262Z,51.80
2018-04-17T01:42:11.075Z,51.80
2018-04-17T01:42:42.876Z,51.70
2018-04-17T01:43:14.643Z,51.80
2018-04-17T01:43:47.193Z,51.80
2018-04-17T01:44:18.975Z,51.80
2018-04-17T01:44:50.738Z,51.90
2018-04-17T01:45:22.513Z,52.00
2018-04-17T01:45:54.290Z,51.90
2018-04-17T01:46:26.845Z,51.80
2018-04-17T01:46:59.420Z,51.80
2018-04-17T01:47:31.973Z,51.70
2018-04-17T01:48:04.526Z,51.60
2018-04-17T01:48:36.344Z,51.50
2018-04-17T01:49:08.113Z,51.70
2018-04-17T01:49:40.678Z,52.40
2018-04-17T01:50:13.237Z,52.10
2018-04-17T01:50:45.001Z,51.70
2018-04-17T01:51:17.550Z,51.80
2018-04-17T01:51:49.330Z,51.70
2018-04-17T01:52:21.119Z,51.80
2018-04-17T01:52:52.901Z,51.70
2018-04-17T01:53:25.467Z,51.80
2018-04-17T01:53:58.040Z,51.90
2018-04-17T01:54:30.723Z,51.90
2018-04-17T01:55:02.566Z,51.90
2018-04-17T01:55:34.357Z,51.90
2018-04-17T01:56:06.147Z,51.90
2018-04-17T01:56:38.710Z,52.00
2018-04-17T01:57:11.254Z,52.00
2018-04-17T01:57:43.226Z,52.00
2018-04-17T01:58:14.994Z,52.00
2018-04-17T01:58:46.773Z,52.00
2018-04-17T01:59:18.545Z,52.00
2018-04-17T01:59:51.100Z,52.10
2018-04-17T02:00:23.649Z,52.70
2018-04-17T02:00:55.429Z,52.00
2018-04-17T02:01:27.953Z,52.00
2018-04-17T02:01:59.733Z,51.90
2018-04-17T02:02:32.275Z,51.90
2018-04-17T02:03:04.815Z,52.00
2018-04-17T02:03:36.628Z,51.90
2018-04-17T02:04:08.389Z,51.90
2018-04-17T02:04:40.174Z,51.80
2018-04-17T02:05:11.942Z,51.80
2018-04-17T02:05:44.493Z,51.70
2018-04-17T02:06:17.046Z,51.70
2018-04-17T02:06:48.823Z,51.70
2018-04-17T02:07:20.606Z,51.70
2018-04-17T02:07:52.390Z,51.70
2018-04-17T02:08:24.931Z,52.50
2018-04-17T02:08:56.698Z,51.80
2018-04-17T02:09:29.255Z,51.90
2018-04-17T02:10:01.023Z,51.80
2018-04-17T02:10:33.570Z,51.90
2018-04-17T02:11:05.382Z,51.80
2018-04-17T02:11:37.319Z,51.90
2018-04-17T02:12:09.127Z,51.80
2018-04-17T02:12:40.915Z,51.70
2018-04-17T02:13:12.836Z,51.70
2018-04-17T02:13:45.367Z,51.80
2018-04-17T02:14:17.910Z,51.90
2018-04-17T02:14:49.721Z,51.90
2018-04-17T02:15:21.656Z,51.80
2018-04-17T02:15:54.190Z,51.90
2018-04-17T02:16:26.739Z,51.90
2018-04-17T02:16:58.522Z,51.90
2018-04-17T02:17:31.059Z,52.00
2018-04-17T02:18:03.610Z,52.00
2018-04-17T02:18:35.402Z,52.00
2018-04-17T02:19:07.187Z,52.00
2018-04-17T02:19:38.991Z,51.90
2018-04-17T02:20:10.751Z,52.50
2018-04-17T02:20:42.546Z,52.00
2018-04-17T02:21:15.100Z,52.00
2018-04-17T02:21:46.901Z,52.00
2018-04-17T02:22:18.759Z,52.20
2018-04-17T02:22:50.530Z,51.90
2018-04-17T02:23:22.309Z,51.80
2018-04-17T02:23:54.856Z,51.90
2018-04-17T02:24:26.654Z,51.90
2018-04-17T02:24:58.446Z,51.90
2018-04-17T02:25:31.018Z,52.00
2018-04-17T02:26:03.577Z,51.90
2018-04-17T02:26:36.127Z,51.90
2018-04-17T02:27:07.918Z,51.80
2018-04-17T02:27:39.710Z,51.80
2018-04-17T02:28:11.471Z,51.90
2018-04-17T02:28:44.045Z,51.70
2018-04-17T02:29:16.602Z,51.70
2018-04-17T02:29:48.375Z,51.70
2018-04-17T02:30:20.914Z,51.70
2018-04-17T02:30:52.681Z,51.70
2018-04-17T02:31:24.465Z,51.80
2018-04-17T02:31:56.321Z,52.00
2018-04-17T02:32:28.081Z,52.00
2018-04-17T02:32:59.859Z,52.00
2018-04-17T02:33:31.648Z,52.20
2018-04-17T02:34:03.427Z,52.00
2018-04-17T02:34:35.206Z,52.00
2018-04-17T02:35:06.992Z,52.00
2018-04-17T02:35:38.780Z,52.00
2018-04-17T02:36:11.329Z,51.90
2018-04-17T02:36:43.097Z,51.90
2018-04-17T02:37:14.890Z,51.80
2018-04-17T02:37:46.667Z,51.80
2018-04-17T02:38:19.229Z,51.80
2018-04-17T02:38:50.998Z,51.80
2018-04-17T02:39:22.773Z,51.80
2018-04-17T02:39:54.572Z,51.80
2018-04-17T02:40:26.329Z,51.80
2018-04-17T02:40:58.129Z,51.50
2018-04-17T02:41:29.955Z,51.80
2018-04-17T02:42:01.740Z,51.80
2018-04-17T02:42:33.514Z,51.80
2018-04-17T02:43:05.291Z,51.90
2018-04-17T02:43:37.057Z,51.80
2018-04-17T02:44:08.853Z,52.00
2018-04-17T02:44:40.631Z,51.80
2018-04-17T02:45:12.411Z,52.00
2018-04-17T02:45:44.198Z,51.80
2018-04-17T02:46:16.004Z,51.80
2018-04-17T02:46:48.558Z,52.00
2018-04-17T02:47:20.329Z,52.00
2018-04-17T02:47:52.891Z,52.00
2018-04-17T02:48:25.442Z,52.00
2018-04-17T02:48:58.019Z,52.10
2018-04-17T02:49:30.560Z,52.00
2018-04-17T02:50:02.336Z,52.00
2018-04-17T02:50:34.317Z,51.50
2018-04-17T02:51:06.100Z,52.00
2018-04-17T02:51:37.898Z,52.00
2018-04-17T02:52:09.695Z,52.00
2018-04-17T02:52:41.462Z,52.00
2018-04-17T02:53:13.239Z,52.00
2018-04-17T02:53:45.041Z,52.00
2018-04-17T02:54:17.582Z,52.00
2018-04-17T02:54:49.357Z,52.00
2018-04-17T02:55:21.153Z,52.00
2018-04-17T02:55:52.922Z,51.90
2018-04-17T02:56:24.695Z,51.90
2018-04-17T02:56:56.475Z,52.50
2018-04-17T02:57:28.250Z,51.90
2018-04-17T02:58:00.015Z,51.80
2018-04-17T02:58:32.557Z,51.90
2018-04-17T02:59:04.344Z,51.90
2018-04-17T02:59:36.113Z,51.80
2018-04-17T03:00:07.911Z,51.90
2018-04-17T03:00:40.508Z,52.00
2018-04-17T03:01:12.285Z,52.00
2018-04-17T03:01:44.080Z,51.90
2018-04-17T03:02:15.862Z,52.00
2018-04-17T03:02:47.692Z,51.90
2018-04-17T03:03:19.445Z,51.90
2018-04-17T03:03:51.253Z,51.90
2018-04-17T03:04:23.019Z,51.90
2018-04-17T03:04:54.786Z,51.90
2018-04-17T03:05:26.563Z,51.80
2018-04-17T03:05:58.337Z,51.80
2018-04-17T03:06:30.886Z,51.90
2018-04-17T03:07:02.660Z,51.90
2018-04-17T03:07:34.433Z,52.40
2018-04-17T03:08:06.247Z,51.80
2018-04-17T03:08:38.035Z,51.80
2018-04-17T03:09:09.821Z,51.90
2018-04-17T03:09:42.367Z,51.90
2018-04-17T03:10:14.157Z,51.90
2018-04-17T03:10:45.973Z,51.80
2018-04-17T03:11:17.734Z,51.90
2018-04-17T03:11:50.277Z,51.80
2018-04-17T03:12:22.058Z,51.80
2018-04-17T03:12:53.863Z,51.90
2018-04-17T03:13:25.680Z,51.80
2018-04-17T03:13:57.439Z,51.80
2018-04-17T03:14:29.237Z,51.70
2018-04-17T03:15:01.010Z,51.70
2018-04-17T03:15:32.797Z,51.80
2018-04-17T03:16:04.577Z,51.80
2018-04-17T03:16:36.370Z,51.80
2018-04-17T03:17:08.151Z,51.80
2018-04-17T03:17:40.692Z,51.70
2018-04-17T03:18:12.457Z,51.70
2018-04-17T03:18:45.040Z,51.70
2018-04-17T03:19:16.794Z,51.70
2018-04-17T03:19:48.585Z,51.70
2018-04-17T03:20:20.362Z,51.70
2018-04-17T03:20:52.901Z,51.80
2018-04-17T03:21:25.460Z,52.20
2018-04-17T03:21:57.259Z,51.70
2018-04-17T03:22:29.040Z,51.60
2018-04-17T03:23:00.826Z,51.60
2018-04-17T03:23:32.597Z,51.70
2018-04-17T03:24:04.530Z,51.60
2018-04-17T03:24:36.378Z,51.70
2018-04-17T03:25:08.905Z,51.60
2018-04-17T03:25:41.518Z,51.70
2018-04-17T03:26:13.303Z,51.70
2018-04-17T03:26:45.074Z,51.60
2018-04-17T03:27:17.615Z,51.50
2018-04-17T03:27:49.405Z,51.50
2018-04-17T03:28:21.226Z,52.20
2018-04-17T03:28:52.982Z,51.50
2018-04-17T03:29:24.772Z,52.10
2018-04-17T03:29:56.551Z,51.50
2018-04-17T03:30:29.114Z,51.60
2018-04-17T03:31:01.673Z,51.60
2018-04-17T03:31:33.465Z,51.50
2018-04-17T03:32:05.441Z,51.60
2018-04-17T03:32:37.233Z,51.60
2018-04-17T03:33:09.783Z,51.60
2018-04-17T03:33:41.562Z,51.60
2018-04-17T03:34:13.395Z,51.00
2018-04-17T03:34:45.189Z,51.50
2018-04-17T03:35:16.970Z,51.50
2018-04-17T03:35:49.509Z,51.50
2018-04-17T03:36:21.289Z,51.40
2018-04-17T03:36:53.070Z,51.40
2018-04-17T03:37:24.840Z,51.40
2018-04-17T03:37:57.413Z,51.40
2018-04-17T03:38:29.182Z,51.40
2018-04-17T03:39:01.731Z,51.50
2018-04-17T03:39:35.028Z,51.50
2018-04-17T03:40:07.563Z,51.50
2018-04-17T03:40:40.846Z,51.50
2018-04-17T03:41:14.124Z,51.50
2018-04-17T03:41:45.890Z,51.50
2018-04-17T03:42:18.438Z,51.60
2018-04-17T03:42:50.205Z,51.60
2018-04-17T03:43:22.754Z,51.50
2018-04-17T03:43:54.528Z,51.50
2018-04-17T03:44:26.357Z,51.10
2018-04-17T03:44:58.937Z,51.50
2018-04-17T03:45:31.689Z,51.50
2018-04-17T03:46:03.444Z,51.50
2018-04-17T03:46:35.222Z,51.50
2018-04-17T03:47:06.979Z,51.40
2018-04-17T03:47:38.753Z,51.50
2018-04-17T03:48:10.534Z,51.40
2018-04-17T03:48:42.311Z,51.50
2018-04-17T03:49:14.100Z,51.40
2018-04-17T03:49:46.625Z,51.60
2018-04-17T03:50:18.403Z,51.50
2018-04-17T03:50:50.966Z,51.60
2018-04-17T03:51:22.752Z,51.50
2018-04-17T03:51:55.285Z,51.60
2018-04-17T03:52:27.857Z,51.70
2018-04-17T03:53:00.427Z,51.60
2018-04-17T03:53:32.233Z,51.70
2018-04-17T03:54:04.010Z,51.60
2018-04-17T03:54:35.789Z,51.60
2018-04-17T03:55:07.581Z,51.50
2018-04-17T03:55:39.354Z,51.50
2018-04-17T03:56:11.172Z,51.70
2018-04-17T03:56:43.706Z,51.50
2018-04-17T03:57:15.471Z,51.60
2018-04-17T03:57:47.244Z,51.50
2018-04-17T03:58:19.021Z,51.70
2018-04-17T03:58:50.807Z,51.60
2018-04-17T03:59:22.578Z,51.70
2018-04-17T03:59:55.133Z,51.70
2018-04-17T04:00:27.708Z,51.70
2018-04-17T04:00:59.483Z,51.70
2018-04-17T04:01:31.295Z,51.70
2018-04-17T04:02:03.058Z,51.70
2018-04-17T04:02:35.179Z,51.70
2018-04-17T04:03:07.729Z,51.40
2018-04-17T04:03:39.514Z,51.40
2018-04-17T04:04:11.299Z,51.60
2018-04-17T04:04:43.084Z,51.60
2018-04-17T04:05:15.626Z,51.60
2018-04-17T04:05:47.431Z,51.60
2018-04-17T04:06:20.151Z,51.70
2018-04-17T04:06:51.930Z,51.70
2018-04-17T04:07:23.687Z,51.70
2018-04-17T04:07:55.527Z,51.60
2018-04-17T04:08:27.297Z,51.60
2018-04-17T04:08:59.091Z,51.70
2018-04-17T04:09:31.657Z,51.80
2018-04-17T04:10:04.222Z,51.70
2018-04-17T04:10:36.889Z,51.70
2018-04-17T04:11:08.701Z,51.70
2018-04-17T04:11:40.459Z,51.70
2018-04-17T04:12:12.236Z,51.60
2018-04-17T04:12:44.031Z,51.70
2018-04-17T04:13:15.817Z,51.70
2018-04-17T04:13:48.355Z,51.70
2018-04-17T04:14:20.141Z,51.70
2018-04-17T04:14:51.908Z,51.70
2018-04-17T04:15:23.708Z,51.60
2018-04-17T04:15:55.472Z,51.60
2018-04-17T04:16:27.242Z,51.60
2018-04-17T04:16:59.042Z,51.50
2018-04-17T04:17:31.583Z,51.60
2018-04-17T04:18:03.381Z,51.50
2018-04-17T04:18:35.170Z,51.50
2018-04-17T04:19:06.947Z,51.50
2018-04-17T04:19:39.486Z,51.60
2018-04-17T04:20:11.270Z,51.50
2018-04-17T04:20:43.051Z,51.70
2018-04-17T04:21:14.830Z,51.80
2018-04-17T04:21:47.419Z,51.70
2018-04-17T04:22:19.366Z,51.70
2018-04-17T04:22:51.902Z,51.70
2018-04-17T04:23:23.693Z,51.70
2018-04-17T04:23:55.466Z,51.80
2018-04-17T04:24:27.239Z,51.90
2018-04-17T04:24:58.997Z,52.50
2018-04-17T04:25:31.549Z,51.80
2018-04-17T04:26:04.097Z,51.80
2018-04-17T04:26:35.874Z,51.80
2018-04-17T04:27:08.398Z,51.80
2018-04-17T04:27:40.207Z,51.80
2018-04-17T04:28:12.010Z,51.80
2018-04-17T04:28:45.411Z,51.70
2018-04-17T04:29:17.956Z,51.70
2018-04-17T04:29:49.736Z,51.70
2018-04-17T04:30:21.544Z,51.70
2018-04-17T04:30:53.312Z,51.70
2018-04-17T04:31:25.852Z,51.60
2018-04-17T04:31:57.626Z,51.60
2018-04-17T04:32:29.499Z,51.60
2018-04-17T04:33:01.258Z,51.50
2018-04-17T04:33:33.042Z,51.40
2018-04-17T04:34:05.577Z,51.60
2018-04-17T04:34:37.362Z,51.50
2018-04-17T04:35:09.910Z,52.40
2018-04-17T04:35:42.517Z,53.00
2018-04-17T04:36:14.322Z,53.00
2018-04-17T04:36:46.101Z,53.80
2018-04-17T04:37:17.885Z,54.30
2018-04-17T04:37:49.662Z,54.50
2018-04-17T04:38:21.461Z,55.00
2018-04-17T04:38:53.275Z,55.30
2018-04-17T04:39:25.797Z,55.50
2018-04-17T04:39:57.573Z,55.50
2018-04-17T04:40:30.114Z,55.10
2018-04-17T04:41:02.193Z,55.00
2018-04-17T04:41:33.997Z,55.00
2018-04-17T04:42:05.789Z,55.00
2018-04-17T04:42:37.681Z,55.40
2018-04-17T04:43:09.489Z,55.50
2018-04-17T04:43:41.245Z,55.60
2018-04-17T04:44:13.035Z,55.40
2018-04-17T04:44:44.819Z,55.30
2018-04-17T04:45:16.652Z,55.30
2018-04-17T04:45:49.203Z,55.60
2018-04-17T04:46:20.966Z,55.50
2018-04-17T04:46:52.788Z,56.20
2018-04-17T04:47:25.335Z,56.10
2018-04-17T04:47:57.117Z,56.00
2018-04-17T04:48:29.668Z,56.10
2018-04-17T04:49:02.212Z,56.20
2018-04-17T04:49:33.987Z,56.10
2018-04-17T04:50:06.530Z,56.10
2018-04-17T04:50:38.313Z,56.10
2018-04-17T04:51:10.170Z,55.70
2018-04-17T04:51:41.962Z,56.00
2018-04-17T04:52:13.735Z,56.30
2018-04-17T04:52:46.290Z,56.20
2018-04-17T04:53:18.845Z,56.40
2018-04-17T04:53:50.610Z,56.20
2018-04-17T04:54:22.421Z,56.30
2018-04-17T04:54:54.215Z,56.30
2018-04-17T04:55:26.296Z,56.20
2018-04-17T04:55:58.066Z,56.10
2018-04-17T04:56:29.838Z,56.20
2018-04-17T04:57:02.389Z,55.60
2018-04-17T04:57:34.164Z,55.60
2018-04-17T04:58:05.956Z,56.10
2018-04-17T04:59:23.178Z,56.00
2018-04-17T04:59:55.365Z,56.20
2018-04-17T05:00:27.901Z,55.80
2018-04-17T05:00:59.674Z,55.80
2018-04-17T05:01:31.441Z,55.90
2018-04-17T05:02:03.218Z,56.00
2018-04-17T05:02:35.015Z,55.80
2018-04-17T05:03:06.785Z,55.80
2018-04-17T05:03:38.570Z,55.80
2018-04-17T05:04:10.346Z,55.50
2018-04-17T05:04:42.126Z,56.30
2018-04-17T05:05:13.918Z,56.00
2018-04-17T05:05:45.693Z,55.90
2018-04-17T05:06:17.474Z,55.70
2018-04-17T05:06:49.247Z,55.40
2018-04-17T05:07:21.029Z,55.50
2018-04-17T05:07:52.880Z,56.10
2018-04-17T05:08:25.417Z,55.20
2018-04-17T05:08:57.969Z,55.50
2018-04-17T05:09:30.514Z,56.00
2018-04-17T05:10:02.326Z,55.40
2018-04-17T05:10:34.096Z,55.40
2018-04-17T05:11:05.880Z,55.00
2018-04-17T05:11:37.656Z,55.10
2018-04-17T05:12:09.663Z,55.30
2018-04-17T05:12:41.442Z,55.00
2018-04-17T05:13:13.218Z,54.90
2018-04-17T05:13:44.997Z,55.00
2018-04-17T05:14:16.766Z,54.90
2018-04-17T05:14:48.550Z,54.90
2018-04-17T05:15:20.323Z,54.90
2018-04-17T05:15:52.100Z,55.00
2018-04-17T05:16:23.905Z,54.90
2018-04-17T05:16:55.681Z,54.80
2018-04-17T05:17:28.247Z,54.90
2018-04-17T05:18:00.783Z,55.40
2018-04-17T05:18:32.570Z,54.80
2018-04-17T05:19:05.308Z,54.50
2018-04-17T05:19:38.586Z,54.60
2018-04-17T05:20:11.139Z,54.60
2018-04-17T05:20:42.926Z,54.60
2018-04-17T05:21:14.711Z,54.40
2018-04-17T05:21:46.514Z,54.50
2018-04-17T05:22:18.288Z,54.40
2018-04-17T05:22:50.068Z,54.30
2018-04-17T05:23:21.851Z,54.00
2018-04-17T05:23:53.694Z,54.00
2018-04-17T05:24:25.602Z,54.20
2018-04-17T05:24:57.370Z,54.10
2018-04-17T05:25:29.929Z,54.10
2018-04-17T05:26:01.739Z,54.10
2018-04-17T05:26:33.667Z,54.70
2018-04-17T05:27:05.449Z,54.10
2018-04-17T05:27:37.281Z,54.10
2018-04-17T05:28:09.061Z,54.10
2018-04-17T05:28:41.620Z,54.10
2018-04-17T05:29:14.175Z,54.80
2018-04-17T05:29:45.945Z,54.10
2018-04-17T05:30:18.494Z,53.90
2018-04-17T05:30:50.261Z,53.90
2018-04-17T05:31:22.056Z,54.50
2018-04-17T05:31:53.836Z,53.80
2018-04-17T05:32:26.390Z,53.80
2018-04-17T05:32:58.164Z,53.80
2018-04-17T05:33:29.934Z,53.80
2018-04-17T05:34:01.723Z,53.70
2018-04-17T05:34:33.501Z,53.70
2018-04-17T05:35:05.287Z,53.80
2018-04-17T05:35:37.062Z,53.70
2018-04-17T05:36:08.834Z,53.60
2018-04-17T05:36:41.389Z,53.60
2018-04-17T05:37:13.934Z,53.50
2018-04-17T05:37:46.485Z,53.70
2018-04-17T05:38:18.265Z,53.40
2018-04-17T05:38:50.800Z,53.40
2018-04-17T05:39:22.590Z,53.40
2018-04-17T05:39:54.399Z,53.30
2018-04-17T05:40:26.158Z,53.40
2018-04-17T05:40:58.696Z,53.30
2018-04-17T05:41:30.473Z,53.30
2018-04-17T05:42:03.038Z,53.20
2018-04-17T05:42:35.574Z,53.20
2018-04-17T05:43:07.358Z,53.10
2018-04-17T05:43:39.129Z,53.20
2018-04-17T05:44:10.902Z,53.30
2018-04-17T05:44:42.681Z,53.50
2018-04-17T05:45:14.425Z,53.50
2018-04-17T05:45:46.210Z,53.40
2018-04-17T05:46:18.003Z,53.40
2018-04-17T05:46:49.998Z,53.30
2018-04-17T05:47:21.721Z,53.30
2018-04-17T05:47:53.471Z,53.20
2018-04-17T05:48:25.219Z,53.80
2018-04-17T05:48:56.957Z,53.20
2018-04-17T05:49:28.779Z,53.10
2018-04-17T05:50:00.491Z,53.10
2018-04-17T05:50:32.226Z,53.10
2018-04-17T05:51:04.019Z,53.00
2018-04-17T05:51:36.509Z,53.00
2018-04-17T05:52:08.243Z,53.00
2018-04-17T05:52:40.044Z,53.00
2018-04-17T05:53:11.770Z,53.00
2018-04-17T05:53:43.504Z,53.00
2018-04-17T05:54:15.245Z,52.90
2018-04-17T05:54:47.011Z,53.00
2018-04-17T05:55:19.528Z,52.90
2018-04-17T05:55:51.365Z,52.80
2018-04-17T05:56:23.270Z,52.80
2018-04-17T05:56:55.777Z,53.00
2018-04-17T05:57:27.516Z,52.80
2018-04-17T05:57:59.243Z,52.80
2018-04-17T05:58:30.987Z,52.70
2018-04-17T05:59:03.494Z,52.70
2018-04-17T05:59:35.259Z,52.70
2018-04-17T06:00:06.987Z,52.70
2018-04-17T06:00:38.933Z,52.60
2018-04-17T06:01:10.663Z,52.70
2018-04-17T06:01:42.410Z,52.70
2018-04-17T06:02:14.178Z,52.80
2018-04-17T06:02:45.917Z,52.70
2018-04-17T06:03:17.658Z,52.80
2018-04-17T06:03:49.403Z,52.70
2018-04-17T06:04:21.150Z,52.70
2018-04-17T06:04:52.895Z,52.60
2018-04-17T06:05:24.639Z,52.60
2018-04-17T06:05:56.366Z,52.60
2018-04-17T06:06:28.098Z,52.80
2018-04-17T06:06:59.843Z,52.60
2018-04-17T06:07:31.580Z,52.70
2018-04-17T06:08:03.317Z,52.60
2018-04-17T06:08:35.047Z,52.60
2018-04-17T06:09:07.570Z,52.60
2018-04-17T06:09:39.321Z,52.50
2018-04-17T06:10:11.077Z,52.50
2018-04-17T06:10:42.818Z,52.50
2018-04-17T06:11:14.588Z,52.50
2018-04-17T06:11:47.090Z,52.50
2018-04-17T06:12:18.863Z,52.40
2018-04-17T06:12:50.779Z,52.40
2018-04-17T06:13:22.723Z,52.50
2018-04-17T06:13:54.471Z,52.40
2018-04-17T06:14:26.453Z,52.50
2018-04-17T06:14:58.169Z,52.50
2018-04-17T06:15:29.923Z,52.50
2018-04-17T06:16:01.746Z,52.50
2018-04-17T06:16:34.426Z,52.40
2018-04-17T06:17:06.364Z,52.40
2018-04-17T06:17:38.143Z,52.40
2018-04-17T06:18:10.099Z,52.40
2018-04-17T06:18:41.838Z,52.40
2018-04-17T06:19:13.577Z,52.30
2018-04-17T06:19:45.333Z,52.40
2018-04-17T06:20:17.098Z,52.40
2018-04-17T06:20:48.850Z,52.40
2018-04-17T06:21:21.347Z,52.30
2018-04-17T06:21:53.093Z,52.30
2018-04-17T06:22:24.823Z,52.40
2018-04-17T06:22:56.598Z,52.30
2018-04-17T06:23:28.335Z,52.30
2018-04-17T06:24:00.065Z,52.20
2018-04-17T06:24:31.806Z,52.10
2018-04-17T06:25:03.552Z,52.20
2018-04-17T06:25:35.275Z,52.20
2018-04-17T06:26:07.035Z,52.10
2018-04-17T06:26:39.746Z,52.20
2018-04-17T06:27:11.482Z,52.20
2018-04-17T06:27:43.241Z,52.10
2018-04-17T06:28:15.022Z,52.10
2018-04-17T06:28:46.758Z,52.00
2018-04-17T06:29:19.277Z,52.00
2018-04-17T06:29:51.025Z,52.00
2018-04-17T06:30:22.779Z,51.90
2018-04-17T06:30:54.574Z,52.00
2018-04-17T06:31:26.326Z,52.00
2018-04-17T06:31:58.071Z,52.10
2018-04-17T06:32:29.821Z,52.00
2018-04-17T06:33:01.599Z,52.10
2018-04-17T06:33:33.330Z,52.10
2018-04-17T06:34:05.294Z,52.10
2018-04-17T06:34:37.019Z,52.10
2018-04-17T06:35:08.799Z,52.10
2018-04-17T06:35:40.722Z,52.10
2018-04-17T06:36:12.462Z,52.10
2018-04-17T06:36:44.210Z,52.00
2018-04-17T06:37:15.950Z,52.00
2018-04-17T06:37:47.673Z,52.00
2018-04-17T06:38:19.456Z,52.00
2018-04-17T06:38:51.199Z,51.90
2018-04-17T06:39:22.929Z,52.00
2018-04-17T06:39:54.662Z,51.90
2018-04-17T06:40:26.406Z,51.80
2018-04-17T06:40:58.147Z,51.80
2018-04-17T06:41:29.888Z,51.90
2018-04-17T06:42:01.672Z,51.80
2018-04-17T06:42:33.594Z,51.90
2018-04-17T06:43:05.344Z,51.90
2018-04-17T06:43:37.081Z,51.90
2018-04-17T06:44:08.820Z,51.80
2018-04-17T06:44:40.591Z,51.70
2018-04-17T06:45:12.324Z,51.70
2018-04-17T06:45:44.082Z,51.70
2018-04-17T06:46:15.843Z,51.70
2018-04-17T06:46:47.752Z,51.60
2018-04-17T06:47:19.506Z,51.60
2018-04-17T06:47:51.435Z,51.60
2018-04-17T06:48:23.182Z,51.60
2018-04-17T06:48:54.922Z,51.60
2018-04-17T06:49:26.677Z,51.70
2018-04-17T06:49:58.418Z,51.60
2018-04-17T06:50:30.169Z,51.70
2018-04-17T06:51:01.913Z,51.70
2018-04-17T06:51:33.650Z,51.70
2018-04-17T06:52:05.449Z,51.70
2018-04-17T06:52:37.953Z,51.80